ADDS METAR Data INFO
IDs: Format: Raw Decoded Include TAF

Data at: 0937 UTC 19 Jul 2018

METAR for:KIND (Indianapolis Intl, IN, US)
Text:KIND 190854Z 10006KT 10SM CLR 21/14 A3001 RMK AO2 SLP156 T02060139 55005
Temperature: 20.6°C ( 69°F)
Dewpoint: 13.9°C ( 57°F) [RH = 65%]
Pressure (altimeter):30.01 inches Hg (1016.3 mb) [Sea level pressure: 1015.6 mb]
Winds:from the E (100 degrees) at 7 MPH (6 knots; 3.1 m/s)
Visibility:10 or more sm (16+ km)
Ceiling:at least 12,000 feet AGL
Clouds:sky clear below 12,000 feet AGL